Time;durP1;ratioP1;P1;durP2;ratioP2;P2;SDS_P1;SDS_P2;PMS_P1;PMS_P2;Temp;Humidity;BMP_temperature;BMP_pressure;BME280_temperature;BME280_humidity;BME280_pressure;Samples;Min_cycle;Max_cycle;Signal;HPM_P1;HPM_P2
2023/01/04 00:00:07;;;;;;;;;;;19.00;67.00;;;;;;5059432;28;43418;-78
2023/01/04 00:02:32;;;;;;;;;;;19.00;67.00;;;;;;5062607;28;43076;-79
2023/01/04 00:04:58;;;;;;;;;;;19.00;67.00;;;;;;5058280;28;43125;-79
2023/01/04 00:07:23;;;;;;;;;;;19.00;66.90;;;;;;5049910;28;42920;-77
2023/01/04 00:09:52;;;;;;;;;;;19.00;66.90;;;;;;5051326;28;43412;-78
2023/01/04 00:12:20;;;;;;;;;;;19.00;67.00;;;;;;5044889;28;43035;-77
2023/01/04 00:14:45;;;;;;;;;;;19.00;66.90;;;;;;5045175;28;43532;-78
2023/01/04 00:17:11;;;;;;;;;;;19.00;66.80;;;;;;5042075;28;42990;-78
2023/01/04 00:19:36;;;;;;;;;;;19.00;66.70;;;;;;5044938;28;43467;-77
2023/01/04 00:22:02;;;;;;;;;;;19.10;66.40;;;;;;5045433;28;42849;-79
2023/01/04 00:24:27;;;;;;;;;;;19.20;66.30;;;;;;5044997;28;43311;-79
2023/01/04 00:26:53;;;;;;;;;;;19.20;66.20;;;;;;5045159;28;43073;-79
2023/01/04 00:29:18;;;;;;;;;;;19.20;66.10;;;;;;5036493;28;44176;-79
2023/01/04 00:31:44;;;;;;;;;;;19.20;66.20;;;;;;5041846;28;42994;-78
2023/01/04 00:34:11;;;;;;;;;;;19.10;66.30;;;;;;5044058;28;42998;-79
2023/01/04 00:36:37;;;;;;;;;;;19.10;66.30;;;;;;5036110;28;45093;-78
2023/01/04 00:39:09;;;;;;;;;;;19.10;66.40;;;;;;5026979;28;45666;-79
2023/01/04 00:41:36;;;;;;;;;;;19.10;66.40;;;;;;5044790;28;42971;-78
2023/01/04 00:44:03;;;;;;;;;;;19.10;66.30;;;;;;5031968;28;43007;-79
2023/01/04 00:46:29;;;;;;;;;;;19.10;66.20;;;;;;5045367;28;43049;-79
2023/01/04 00:48:54;;;;;;;;;;;19.20;66.30;;;;;;5025443;28;43002;-79
2023/01/04 00:51:20;;;;;;;;;;;19.10;66.40;;;;;;5033961;28;43009;-79
2023/01/04 00:53:45;;;;;;;;;;;19.10;66.40;;;;;;5040819;28;42940;-79
2023/01/04 00:56:11;;;;;;;;;;;19.10;66.40;;;;;;5044899;28;43124;-80
2023/01/04 00:58:36;;;;;;;;;;;19.10;66.50;;;;;;5044942;28;43385;-79
2023/01/04 01:01:08;;;;;;;;;;;19.10;66.50;;;;;;5044499;28;43021;-79
2023/01/04 01:03:34;;;;;;;;;;;19.10;66.60;;;;;;5043150;28;43849;-79
2023/01/04 01:06:03;;;;;;;;;;;19.00;66.60;;;;;;5043227;28;42934;-79
2023/01/04 01:08:29;;;;;;;;;;;19.10;66.60;;;;;;5044208;28;42941;-79
2023/01/04 01:10:55;;;;;;;;;;;19.10;66.70;;;;;;5044000;28;42931;-79
2023/01/04 01:13:21;;;;;;;;;;;19.10;66.70;;;;;;5043795;28;43022;-79
2023/01/04 01:15:46;;;;;;;;;;;19.10;66.70;;;;;;5043168;28;42967;-79
2023/01/04 01:18:12;;;;;;;;;;;19.00;66.70;;;;;;5043761;28;43276;-79
2023/01/04 01:20:42;;;;;;;;;;;19.00;66.70;;;;;;5042975;28;42983;-80
2023/01/04 01:23:08;;;;;;;;;;;18.90;66.60;;;;;;5043829;28;43059;-79
2023/01/04 01:25:34;;;;;;;;;;;19.00;66.80;;;;;;5043270;28;42955;-80
2023/01/04 01:27:59;;;;;;;;;;;19.00;66.70;;;;;;5043840;28;43609;-80
2023/01/04 01:30:25;;;;;;;;;;;19.00;66.70;;;;;;5043592;28;43138;-79
2023/01/04 01:32:51;;;;;;;;;;;19.10;66.80;;;;;;5044038;28;43511;-78
2023/01/04 01:35:16;;;;;;;;;;;19.00;67.10;;;;;;5026184;28;43096;-79
2023/01/04 01:37:42;;;;;;;;;;;19.10;67.10;;;;;;5043728;28;43210;-79
2023/01/04 01:43:18;;;;;;;;;;;19.00;67.00;;;;;;5030265;28;43388;-79
2023/01/04 01:45:44;;;;;;;;;;;19.00;67.00;;;;;;5043868;28;43326;-79
2023/01/04 01:48:11;;;;;;;;;;;19.00;66.80;;;;;;5043770;28;42931;-80
2023/01/04 01:50:43;;;;;;;;;;;19.00;67.00;;;;;;5032172;28;43023;-78
2023/01/04 01:53:09;;;;;;;;;;;19.00;67.50;;;;;;5042880;28;44021;-78
2023/01/04 01:55:35;;;;;;;;;;;19.00;66.90;;;;;;5047209;28;42808;-79
2023/01/04 01:58:02;;;;;;;;;;;19.00;66.90;;;;;;5039794;28;42973;-79
2023/01/04 02:00:28;;;;;;;;;;;19.00;67.50;;;;;;5044130;28;42978;-79
2023/01/04 02:03:04;;;;;;;;;;;19.00;66.90;;;;;;5044020;28;43058;-80
2023/01/04 02:05:31;;;;;;;;;;;19.00;67.00;;;;;;5044032;28;42839;-79
2023/01/04 02:07:56;;;;;;;;;;;18.90;66.90;;;;;;5043832;28;43422;-78
2023/01/04 02:10:23;;;;;;;;;;;18.90;66.80;;;;;;5043922;28;42825;-79
2023/01/04 02:12:49;;;;;;;;;;;19.00;67.50;;;;;;5043335;28;43615;-78
2023/01/04 02:15:14;;;;;;;;;;;18.90;67.00;;;;;;5044364;28;42911;-78
2023/01/04 02:18:09;;;;;;;;;;;18.90;67.00;;;;;;5046765;28;43003;-79
2023/01/04 02:20:39;;;;;;;;;;;19.00;66.90;;;;;;5010643;28;43094;-79
2023/01/04 02:23:18;;;;;;;;;;;19.00;66.70;;;;;;5047259;28;43097;-79
2023/01/04 02:25:43;;;;;;;;;;;19.00;66.80;;;;;;5047341;28;43265;-79
2023/01/04 02:28:24;;;;;;;;;;;19.00;66.70;;;;;;5028574;28;43086;-78
2023/01/04 02:31:01;;;;;;;;;;;18.90;66.80;;;;;;5047058;28;42935;-79
2023/01/04 02:33:30;;;;;;;;;;;19.00;66.70;;;;;;5046794;28;42836;-79
2023/01/04 02:36:02;;;;;;;;;;;19.00;66.50;;;;;;5046969;28;43180;-79
2023/01/04 02:38:33;;;;;;;;;;;19.00;66.30;;;;;;5045898;28;42931;-79
2023/01/04 02:41:18;;;;;;;;;;;19.00;66.40;;;;;;5033390;28;43083;-79
2023/01/04 02:46:42;;;;;;;;;;;19.00;66.40;;;;;;5046665;28;42966;-79
2023/01/04 02:51:52;;;;;;;;;;;19.00;66.40;;;;;;5046677;28;42897;-79
2023/01/04 02:54:21;;;;;;;;;;;19.10;66.40;;;;;;5053228;28;42962;-79
2023/01/04 02:56:46;;;;;;;;;;;19.10;66.30;;;;;;5047337;28;42978;-79
2023/01/04 02:59:14;;;;;;;;;;;19.10;66.40;;;;;;5046611;28;44411;-79
2023/01/04 03:07:34;;;;;;;;;;;19.10;66.20;;;;;;5039115;28;43068;-79
2023/01/04 03:10:38;;;;;;;;;;;19.10;66.10;;;;;;5054165;28;42986;-79
2023/01/04 03:13:16;;;;;;;;;;;19.10;66.10;;;;;;4963783;28;43280;-79
2023/01/04 03:15:44;;;;;;;;;;;19.00;66.30;;;;;;4964594;28;43222;-78
2023/01/04 03:18:15;;;;;;;;;;;19.00;66.30;;;;;;4964565;28;43142;-79
2023/01/04 03:20:41;;;;;;;;;;;19.10;66.30;;;;;;4964351;28;43062;-79
2023/01/04 03:36:53;;;;;;;;;;;19.00;66.20;;;;;;4964220;28;43350;-79
2023/01/04 03:48:32;;;;;;;;;;;19.10;66.00;;;;;;5046539;28;43041;-79
2023/01/04 03:50:57;;;;;;;;;;;19.10;65.90;;;;;;5045701;28;42923;-79
2023/01/04 03:53:24;;;;;;;;;;;19.10;65.90;;;;;;5044627;28;43467;-78
2023/01/04 03:55:50;;;;;;;;;;;19.00;65.90;;;;;;5045024;28;43061;-79
2023/01/04 03:58:17;;;;;;;;;;;19.00;65.70;;;;;;5045098;28;43781;-78
2023/01/04 04:00:44;;;;;;;;;;;19.10;65.80;;;;;;5044818;28;42925;-79
2023/01/04 04:03:10;;;;;;;;;;;19.10;65.70;;;;;;5045516;28;43836;-78
2023/01/04 04:08:29;;;;;;;;;;;19.10;65.60;;;;;;5037231;28;43106;-75
2023/01/04 04:13:46;;;;;;;;;;;19.00;65.70;;;;;;5044662;28;43087;-78
2023/01/04 04:16:11;;;;;;;;;;;19.10;65.70;;;;;;5045174;28;42923;-78
2023/01/04 04:18:37;;;;;;;;;;;19.10;65.60;;;;;;5045320;28;43445;-78
2023/01/04 04:21:03;;;;;;;;;;;19.10;65.60;;;;;;5026790;28;43040;-78
2023/01/04 04:23:28;;;;;;;;;;;19.00;65.60;;;;;;5046465;28;43620;-79
2023/01/04 04:25:53;;;;;;;;;;;19.00;65.70;;;;;;5049957;28;42972;-78
2023/01/04 04:28:19;;;;;;;;;;;19.00;65.60;;;;;;5045632;28;43799;-78
2023/01/04 04:30:47;;;;;;;;;;;19.10;65.50;;;;;;5045370;28;42952;-79
2023/01/04 04:33:13;;;;;;;;;;;19.10;65.60;;;;;;5044622;28;43129;-78
2023/01/04 04:35:38;;;;;;;;;;;19.00;65.50;;;;;;5045174;28;42955;-78
2023/01/04 04:38:04;;;;;;;;;;;19.10;65.50;;;;;;5043807;28;43567;-79
2023/01/04 04:43:13;;;;;;;;;;;19.00;65.30;;;;;;5041259;28;43227;-79
2023/01/04 04:45:39;;;;;;;;;;;19.10;65.00;;;;;;5044524;28;43014;-79
2023/01/04 04:48:04;;;;;;;;;;;19.00;65.20;;;;;;5036601;28;43701;-79
2023/01/04 04:50:30;;;;;;;;;;;19.10;65.50;;;;;;5052338;28;42924;-79
2023/01/04 04:52:56;;;;;;;;;;;19.00;65.30;;;;;;5044178;28;43441;-78
2023/01/04 04:55:21;;;;;;;;;;;19.00;65.40;;;;;;5042261;28;42883;-77
2023/01/04 04:57:47;;;;;;;;;;;19.00;65.10;;;;;;5044757;28;43684;-79
2023/01/04 05:00:12;;;;;;;;;;;19.00;65.20;;;;;;5042260;28;43958;-79
2023/01/04 05:02:38;;;;;;;;;;;19.00;65.20;;;;;;5044349;28;42885;-79
2023/01/04 05:05:04;;;;;;;;;;;19.10;65.30;;;;;;5043675;28;43159;-79
2023/01/04 05:07:29;;;;;;;;;;;19.00;65.40;;;;;;5040727;28;42919;-80
2023/01/04 05:09:55;;;;;;;;;;;19.00;65.10;;;;;;5037190;28;42948;-79
2023/01/04 05:15:04;;;;;;;;;;;19.00;65.10;;;;;;5050400;28;42974;-79
2023/01/04 05:17:30;;;;;;;;;;;19.00;65.20;;;;;;5057548;28;43059;-79
2023/01/04 05:19:55;;;;;;;;;;;19.00;65.10;;;;;;5048757;28;43133;-78
2023/01/04 05:22:20;;;;;;;;;;;19.10;65.10;;;;;;5051536;28;43044;-79
2023/01/04 05:24:46;;;;;;;;;;;19.10;64.90;;;;;;5052445;28;43357;-79
2023/01/04 05:27:11;;;;;;;;;;;19.00;65.10;;;;;;5058106;28;43345;-78
2023/01/04 05:32:21;;;;;;;;;;;19.00;65.10;;;;;;5057315;28;42994;-79
2023/01/04 05:34:46;;;;;;;;;;;19.10;65.10;;;;;;5034223;28;42946;-79
2023/01/04 05:37:12;;;;;;;;;;;19.00;64.90;;;;;;5056199;28;43972;-79
2023/01/04 05:39:37;;;;;;;;;;;19.00;65.00;;;;;;5026928;28;43117;-79
2023/01/04 05:44:47;;;;;;;;;;;19.00;64.80;;;;;;5057982;28;43130;-77
2023/01/04 05:47:12;;;;;;;;;;;19.00;64.80;;;;;;5057835;28;43911;-78
2023/01/04 05:49:38;;;;;;;;;;;19.00;64.80;;;;;;5059809;28;43015;-78
2023/01/04 05:52:03;;;;;;;;;;;19.00;64.90;;;;;;5058232;28;43063;-77
2023/01/04 05:54:29;;;;;;;;;;;19.00;65.10;;;;;;5057588;28;43302;-77
2023/01/04 05:56:54;;;;;;;;;;;19.00;64.70;;;;;;5053943;28;43774;-77
2023/01/04 05:59:20;;;;;;;;;;;19.00;64.70;;;;;;5061333;28;42922;-77
2023/01/04 06:01:45;;;;;;;;;;;19.10;64.70;;;;;;5060392;28;42904;-78
2023/01/04 06:04:11;;;;;;;;;;;19.00;64.60;;;;;;5060858;28;42989;-78
2023/01/04 06:06:36;;;;;;;;;;;19.00;64.50;;;;;;5059121;28;43028;-78
2023/01/04 06:09:02;;;;;;;;;;;19.00;64.90;;;;;;5059206;28;42959;-77
2023/01/04 06:11:27;;;;;;;;;;;19.00;64.40;;;;;;5063005;28;43050;-79
2023/01/04 06:13:53;;;;;;;;;;;19.00;64.40;;;;;;5054912;28;43978;-77
2023/01/04 06:16:18;;;;;;;;;;;19.00;64.40;;;;;;5058803;28;42986;-78
2023/01/04 06:18:44;;;;;;;;;;;19.00;64.70;;;;;;5056386;28;43128;-77
2023/01/04 06:21:09;;;;;;;;;;;19.00;64.50;;;;;;5051977;28;43443;-77
2023/01/04 06:23:35;;;;;;;;;;;19.00;64.70;;;;;;5039985;28;42959;-78
2023/01/04 06:26:00;;;;;;;;;;;19.00;64.40;;;;;;5064810;28;43057;-80
2023/01/04 06:28:26;;;;;;;;;;;19.00;64.40;;;;;;5059968;28;43161;-79
2023/01/04 06:30:51;;;;;;;;;;;19.00;64.30;;;;;;5038300;28;44410;-77
2023/01/04 06:33:17;;;;;;;;;;;19.00;64.30;;;;;;5036081;28;43595;-77
2023/01/04 06:35:42;;;;;;;;;;;19.00;64.30;;;;;;5062479;28;44096;-80
2023/01/04 06:38:08;;;;;;;;;;;19.00;64.30;;;;;;5062694;28;43117;-79
2023/01/04 06:40:33;;;;;;;;;;;18.90;64.30;;;;;;5062060;28;43092;-78
2023/01/04 06:42:59;;;;;;;;;;;18.90;64.30;;;;;;5057213;28;43121;-79
2023/01/04 06:45:25;;;;;;;;;;;18.90;64.40;;;;;;5065028;28;42979;-79
2023/01/04 06:47:50;;;;;;;;;;;19.00;64.10;;;;;;5054764;28;42989;-79
2023/01/04 06:50:16;;;;;;;;;;;19.00;64.00;;;;;;5057959;28;43365;-77
2023/01/04 06:52:42;;;;;;;;;;;19.00;63.70;;;;;;5063396;28;42913;-79
2023/01/04 06:55:10;;;;;;;;;;;19.00;64.10;;;;;;5064618;28;43967;-80
2023/01/04 06:57:36;;;;;;;;;;;19.50;64.60;;;;;;5057228;28;43114;-76
2023/01/04 07:00:03;;;;;;;;;;;19.00;64.40;;;;;;5060865;28;43719;-77
2023/01/04 07:02:28;;;;;;;;;;;19.00;63.80;;;;;;5033152;28;43110;-80
2023/01/04 07:04:54;;;;;;;;;;;19.00;62.60;;;;;;5059729;28;43494;-76
2023/01/04 07:07:19;;;;;;;;;;;19.00;63.00;;;;;;5054761;28;42915;-76
2023/01/04 07:09:45;;;;;;;;;;;19.00;62.10;;;;;;5032168;28;43560;-79
2023/01/04 07:12:10;;;;;;;;;;;19.00;61.60;;;;;;5056417;28;42989;-78
2023/01/04 07:14:36;;;;;;;;;;;19.00;61.10;;;;;;5047329;28;43022;-77
2023/01/04 07:17:01;;;;;;;;;;;19.00;60.70;;;;;;5049232;28;42977;-78
2023/01/04 07:19:27;;;;;;;;;;;19.00;60.20;;;;;;5050079;28;43351;-79
2023/01/04 07:21:53;;;;;;;;;;;18.90;60.00;;;;;;5064915;28;42850;-80
2023/01/04 07:24:18;;;;;;;;;;;21.20;61.10;;;;;;5036885;28;44595;-80
2023/01/04 07:26:44;;;;;;;;;;;18.90;59.60;;;;;;5058431;28;42955;-77
2023/01/04 07:29:18;;;;;;;;;;;18.90;59.70;;;;;;5062160;28;44451;-76
2023/01/04 07:31:45;;;;;;;;;;;18.90;57.10;;;;;;5058893;28;43068;-79
2023/01/04 07:34:11;;;;;;;;;;;18.80;53.20;;;;;;5061414;28;42949;-78
2023/01/04 07:36:37;;;;;;;;;;;18.70;49.70;;;;;;5053930;28;42970;-79
2023/01/04 07:39:02;;;;;;;;;;;18.60;48.30;;;;;;5061041;28;43378;-79
2023/01/04 07:41:28;;;;;;;;;;;18.50;47.50;;;;;;5058326;28;42930;-77
2023/01/04 07:43:53;;;;;;;;;;;18.30;46.70;;;;;;5062353;28;43728;-78
2023/01/04 07:46:20;;;;;;;;;;;18.20;46.60;;;;;;5061308;28;43111;-78
2023/01/04 07:48:46;;;;;;;;;;;18.10;46.40;;;;;;5058741;28;42947;-78
2023/01/04 07:51:12;;;;;;;;;;;18.00;46.20;;;;;;5062584;28;43092;-76
2023/01/04 07:53:37;;;;;;;;;;;17.90;46.10;;;;;;5040642;28;43450;-79
2023/01/04 07:56:03;;;;;;;;;;;17.80;46.20;;;;;;5044208;28;42968;-78
2023/01/04 07:58:32;;;;;;;;;;;17.80;46.30;;;;;;5044283;28;43781;-78
2023/01/04 08:01:11;;;;;;;;;;;17.70;46.40;;;;;;5044344;28;43031;-79
2023/01/04 08:03:36;;;;;;;;;;;17.60;46.60;;;;;;5045774;28;42904;-77
2023/01/04 08:06:06;;;;;;;;;;;17.60;47.40;;;;;;5048630;28;43304;-77
2023/01/04 08:08:31;;;;;;;;;;;17.60;48.50;;;;;;5058756;28;43644;-77
2023/01/04 08:11:07;;;;;;;;;;;17.60;48.40;;;;;;5063826;28;43053;-77
2023/01/04 08:13:33;;;;;;;;;;;17.60;48.10;;;;;;5059267;28;44421;-77
2023/01/04 08:15:58;;;;;;;;;;;17.50;47.70;;;;;;5062093;28;42951;-77
2023/01/04 08:18:24;;;;;;;;;;;17.50;48.70;;;;;;5055699;28;43115;-78
2023/01/04 08:20:50;;;;;;;;;;;17.40;48.60;;;;;;5058953;28;43039;-77
2023/01/04 08:23:15;;;;;;;;;;;17.40;49.60;;;;;;5059927;28;43044;-76
2023/01/04 08:25:41;;;;;;;;;;;17.40;50.10;;;;;;5060902;28;43111;-74
2023/01/04 08:28:06;;;;;;;;;;;17.50;50.40;;;;;;5047182;28;43433;-77
2023/01/04 08:30:32;;;;;;;;;;;17.60;51.20;;;;;;5037613;28;42964;-74
2023/01/04 08:32:57;;;;;;;;;;;17.60;51.90;;;;;;5046792;28;43027;-77
2023/01/04 08:35:23;;;;;;;;;;;17.80;53.40;;;;;;5061787;28;43113;-75
2023/01/04 08:37:48;;;;;;;;;;;17.90;54.00;;;;;;5057058;28;43022;-74
2023/01/04 08:40:14;;;;;;;;;;;18.10;54.20;;;;;;5047674;28;42911;-75
2023/01/04 08:42:39;;;;;;;;;;;18.20;54.30;;;;;;5059341;28;43586;-78
2023/01/04 08:45:05;;;;;;;;;;;18.30;54.50;;;;;;5058812;28;43093;-76
2023/01/04 08:47:31;;;;;;;;;;;18.20;54.80;;;;;;5056786;28;44014;-77
2023/01/04 08:49:57;;;;;;;;;;;18.20;55.10;;;;;;5056769;28;43252;-78
2023/01/04 08:52:23;;;;;;;;;;;18.20;55.10;;;;;;5055407;28;42986;-77
2023/01/04 08:54:48;;;;;;;;;;;18.30;55.30;;;;;;5060068;28;42907;-78
2023/01/04 08:57:17;;;;;;;;;;;18.30;55.60;;;;;;5051725;28;43012;-78
2023/01/04 08:59:43;;;;;;;;;;;18.30;55.80;;;;;;5058222;28;43268;-79
2023/01/04 09:02:25;;;;;;;;;;;18.30;56.00;;;;;;5055937;28;42980;-78
2023/01/04 09:04:50;;;;;;;;;;;18.30;56.30;;;;;;5042329;28;43002;-78
2023/01/04 09:07:16;;;;;;;;;;;18.30;56.30;;;;;;5057602;28;45459;-77
2023/01/04 09:09:42;;;;;;;;;;;18.40;56.40;;;;;;5055889;28;43025;-79
2023/01/04 09:12:07;;;;;;;;;;;18.40;56.40;;;;;;5050839;28;43263;-78
2023/01/04 09:14:33;;;;;;;;;;;18.40;56.60;;;;;;5042371;28;42986;-78
2023/01/04 09:16:58;;;;;;;;;;;18.40;56.80;;;;;;5056111;28;42915;-78
2023/01/04 09:19:24;;;;;;;;;;;18.40;57.00;;;;;;5056296;28;42907;-77
2023/01/04 09:21:49;;;;;;;;;;;18.40;57.00;;;;;;5057039;28;44313;-78
2023/01/04 09:24:15;;;;;;;;;;;18.50;57.20;;;;;;5053018;28;42960;-76
2023/01/04 09:26:40;;;;;;;;;;;18.40;57.30;;;;;;5042281;28;43845;-78
2023/01/04 09:29:06;;;;;;;;;;;18.40;57.40;;;;;;5039084;28;43184;-77
2023/01/04 09:31:31;;;;;;;;;;;18.40;57.60;;;;;;5042942;28;43689;-78
2023/01/04 09:33:57;;;;;;;;;;;18.40;57.70;;;;;;5044052;28;42975;-77
2023/01/04 09:36:23;;;;;;;;;;;18.50;57.80;;;;;;5043506;28;43553;-77
2023/01/04 09:38:50;;;;;;;;;;;18.40;57.90;;;;;;5043732;28;42860;-78
2023/01/04 09:41:27;;;;;;;;;;;18.50;58.00;;;;;;5042485;28;42904;-78
2023/01/04 09:43:57;;;;;;;;;;;18.50;58.10;;;;;;5043792;28;42973;-77
2023/01/04 09:46:29;;;;;;;;;;;18.50;58.10;;;;;;5056660;28;43038;-78
2023/01/04 09:49:08;;;;;;;;;;;18.50;58.20;;;;;;5043749;28;42955;-79
2023/01/04 09:51:35;;;;;;;;;;;18.50;58.30;;;;;;5044443;28;43140;-79
2023/01/04 09:54:10;;;;;;;;;;;18.50;58.80;;;;;;5056675;28;43125;-79
2023/01/04 09:56:36;;;;;;;;;;;18.60;58.40;;;;;;5034092;28;43415;-78
2023/01/04 09:59:06;;;;;;;;;;;18.50;58.50;;;;;;5043783;28;42933;-79
2023/01/04 10:01:38;;;;;;;;;;;18.50;58.60;;;;;;5044136;28;42995;-78
2023/01/04 10:04:17;;;;;;;;;;;18.50;58.80;;;;;;5043379;28;42971;-80
2023/01/04 10:06:43;;;;;;;;;;;18.50;58.80;;;;;;5043193;28;43307;-79
2023/01/04 10:09:11;;;;;;;;;;;18.50;58.70;;;;;;5043900;28;42933;-77
2023/01/04 10:11:55;;;;;;;;;;;18.50;58.80;;;;;;5043296;28;43983;-77
2023/01/04 10:14:20;;;;;;;;;;;18.60;58.90;;;;;;5043950;28;42945;-78
2023/01/04 10:16:51;;;;;;;;;;;18.50;58.90;;;;;;5043439;28;43153;-78
2023/01/04 10:19:31;;;;;;;;;;;18.50;59.00;;;;;;5026136;28;43203;-79
2023/01/04 10:22:04;;;;;;;;;;;18.60;59.10;;;;;;5043951;28;43058;-79
2023/01/04 10:24:39;;;;;;;;;;;18.60;59.00;;;;;;5036770;28;42947;-78
2023/01/04 10:27:09;;;;;;;;;;;18.50;59.00;;;;;;5037509;28;42946;-76
2023/01/04 10:29:38;;;;;;;;;;;18.60;59.10;;;;;;5029473;28;44157;-77
2023/01/04 10:32:12;;;;;;;;;;;18.60;59.20;;;;;;5036494;28;43009;-79
2023/01/04 10:34:44;;;;;;;;;;;18.60;59.20;;;;;;5039754;28;43002;-78
2023/01/04 10:37:12;;;;;;;;;;;18.60;59.10;;;;;;5034101;28;43100;-80
2023/01/04 10:39:38;;;;;;;;;;;18.60;59.20;;;;;;5044588;28;43006;-78
2023/01/04 10:42:07;;;;;;;;;;;18.70;59.10;;;;;;5044867;28;43516;-78
2023/01/04 10:44:35;;;;;;;;;;;18.70;58.90;;;;;;5045013;28;43051;-78
2023/01/04 10:47:07;;;;;;;;;;;18.70;59.10;;;;;;5045889;28;43655;-79
2023/01/04 10:49:39;;;;;;;;;;;18.70;59.10;;;;;;5046251;28;42853;-76
2023/01/04 10:52:08;;;;;;;;;;;18.80;59.00;;;;;;5046748;28;43935;-79
2023/01/04 10:54:38;;;;;;;;;;;18.80;59.00;;;;;;5043677;28;43060;-78
2023/01/04 10:57:06;;;;;;;;;;;18.80;59.00;;;;;;5035082;28;43153;-79
2023/01/04 10:59:35;;;;;;;;;;;18.70;59.10;;;;;;5045266;28;43607;-78
2023/01/04 11:02:06;;;;;;;;;;;18.70;59.10;;;;;;5040272;28;43895;-77
2023/01/04 11:04:34;;;;;;;;;;;18.70;59.70;;;;;;5047214;28;42915;-78
2023/01/04 11:07:09;;;;;;;;;;;18.70;59.40;;;;;;5032921;28;43878;-79
2023/01/04 11:09:44;;;;;;;;;;;18.70;59.30;;;;;;5040682;28;42910;-79
2023/01/04 11:12:14;;;;;;;;;;;18.70;59.40;;;;;;5032404;28;43644;-78
2023/01/04 11:14:40;;;;;;;;;;;18.70;59.40;;;;;;5020426;28;42955;-78
2023/01/04 11:17:07;;;;;;;;;;;18.70;59.50;;;;;;5050268;28;43845;-75
2023/01/04 11:19:33;;;;;;;;;;;18.70;59.60;;;;;;5066038;28;43073;-79
2023/01/04 11:22:00;;;;;;;;;;;18.70;59.60;;;;;;5046010;28;43050;-78
2023/01/04 11:24:29;;;;;;;;;;;18.70;59.60;;;;;;5046178;28;42880;-80
2023/01/04 11:26:56;;;;;;;;;;;18.70;59.70;;;;;;5051324;28;42916;-79
2023/01/04 11:29:24;;;;;;;;;;;18.70;59.80;;;;;;5037594;28;42867;-77
2023/01/04 11:31:53;;;;;;;;;;;18.70;59.80;;;;;;5035511;28;43375;-76
2023/01/04 11:34:18;;;;;;;;;;;18.70;60.40;;;;;;5033536;28;43434;-78
2023/01/04 11:36:46;;;;;;;;;;;18.70;59.90;;;;;;5043645;28;43057;-78
2023/01/04 11:39:22;;;;;;;;;;;18.70;59.90;;;;;;5060759;28;43037;-79
2023/01/04 11:41:58;;;;;;;;;;;18.70;59.90;;;;;;5060765;28;44022;-77
2023/01/04 11:44:23;;;;;;;;;;;18.70;60.00;;;;;;5059748;28;43016;-78
2023/01/04 11:47:15;;;;;;;;;;;18.70;60.00;;;;;;5058127;28;43430;-79
2023/01/04 11:49:41;;;;;;;;;;;18.70;60.10;;;;;;5044995;28;43186;-76
2023/01/04 11:52:26;;;;;;;;;;;18.70;60.10;;;;;;5063261;28;43847;-83
2023/01/04 11:54:52;;;;;;;;;;;18.70;60.70;;;;;;5060280;28;43318;-83
2023/01/04 11:57:18;;;;;;;;;;;18.70;57.90;;;;;;5059631;28;43212;-82
2023/01/04 11:59:43;;;;;;;;;;;18.70;56.50;;;;;;5054030;28;43064;-83
2023/01/04 12:02:29;;;;;;;;;;;18.50;56.00;;;;;;5045515;28;42993;-82
2023/01/04 12:04:54;;;;;;;;;;;18.50;56.30;;;;;;5036038;28;43905;-81
2023/01/04 12:07:23;;;;;;;;;;;18.50;56.40;;;;;;5042090;28;43053;-81
2023/01/04 12:09:48;;;;;;;;;;;18.40;56.20;;;;;;5054903;28;43137;-81
2023/01/04 12:12:14;;;;;;;;;;;18.40;56.30;;;;;;5057992;28;42965;-80
2023/01/04 12:14:44;;;;;;;;;;;18.40;56.70;;;;;;5058011;28;43019;-81
2023/01/04 12:17:09;;;;;;;;;;;18.30;56.60;;;;;;5059749;28;42891;-83
2023/01/04 12:19:35;;;;;;;;;;;18.30;56.50;;;;;;5057409;28;43233;-86
2023/01/04 12:22:01;;;;;;;;;;;18.30;56.30;;;;;;5054436;28;42945;-79
2023/01/04 12:24:28;;;;;;;;;;;18.30;56.70;;;;;;5053436;28;42963;-80
2023/01/04 12:26:54;;;;;;;;;;;18.20;56.40;;;;;;5050365;28;43036;-84
2023/01/04 12:29:21;;;;;;;;;;;18.20;56.40;;;;;;5075590;28;42300;-84
2023/01/04 12:31:47;;;;;;;;;;;18.20;56.30;;;;;;5080418;28;42532;-83
2023/01/04 12:34:12;;;;;;;;;;;18.10;56.60;;;;;;5067294;28;42884;-81
2023/01/04 12:36:38;;;;;;;;;;;18.10;56.50;;;;;;5073856;27;42625;-76
2023/01/04 12:39:12;;;;;;;;;;;18.10;56.50;;;;;;5064801;28;42918;-84
2023/01/04 12:41:38;;;;;;;;;;;18.00;56.30;;;;;;5054024;28;44017;-82
2023/01/04 12:44:22;;;;;;;;;;;18.00;56.10;;;;;;5057599;28;43306;-79
2023/01/04 12:49:40;;;;;;;;;;;17.90;56.20;;;;;;5059462;28;43006;-82
2023/01/04 12:52:08;;;;;;;;;;;17.80;56.20;;;;;;5059295;28;42902;-83
2023/01/04 12:54:47;;;;;;;;;;;17.90;56.40;;;;;;5053268;28;43037;-83
2023/01/04 12:57:16;;;;;;;;;;;17.90;56.20;;;;;;5059483;28;43052;-81
2023/01/04 13:00:00;;;;;;;;;;;17.90;56.70;;;;;;5051787;28;42959;-84
2023/01/04 13:02:32;;;;;;;;;;;17.90;56.30;;;;;;5056130;28;42977;-82
2023/01/04 13:04:59;;;;;;;;;;;18.00;57.00;;;;;;5034927;28;43037;-79
2023/01/04 13:07:32;;;;;;;;;;;18.00;56.60;;;;;;5049757;28;43415;-80
2023/01/04 13:09:59;;;;;;;;;;;18.00;56.30;;;;;;5047708;28;43313;-81
2023/01/04 13:12:38;;;;;;;;;;;18.10;56.60;;;;;;5046180;28;42942;-78
2023/01/04 13:15:11;;;;;;;;;;;17.30;55.50;;;;;;5045561;28;43731;-80
2023/01/04 13:17:38;;;;;;;;;;;18.10;56.10;;;;;;5052030;28;43831;-80
2023/01/04 13:20:30;;;;;;;;;;;18.20;56.20;;;;;;5053603;28;42861;-80
2023/01/04 13:22:56;;;;;;;;;;;18.20;56.50;;;;;;5053815;28;43657;-80
2023/01/04 13:25:24;;;;;;;;;;;18.20;56.50;;;;;;5031067;28;42970;-80
2023/01/04 13:27:54;;;;;;;;;;;18.20;56.50;;;;;;5059610;28;43648;-81
2023/01/04 13:30:29;;;;;;;;;;;18.30;56.50;;;;;;5059185;28;43336;-80
2023/01/04 13:32:54;;;;;;;;;;;18.30;56.40;;;;;;5057390;28;43034;-80
2023/01/04 13:35:20;;;;;;;;;;;18.20;56.50;;;;;;5055052;28;43102;-78
2023/01/04 13:37:47;;;;;;;;;;;18.20;56.80;;;;;;5059269;28;43066;-77
2023/01/04 13:40:23;;;;;;;;;;;18.20;56.90;;;;;;5058542;28;42978;-77
2023/01/04 13:42:53;;;;;;;;;;;18.20;56.80;;;;;;5059271;28;43735;-78
2023/01/04 13:45:37;;;;;;;;;;;17.50;56.30;;;;;;5048992;28;43044;-78
2023/01/04 13:48:08;;;;;;;;;;;18.20;56.60;;;;;;5059134;28;42971;-78
2023/01/04 13:50:34;;;;;;;;;;;18.20;56.50;;;;;;5141114;22;43307;-79
2023/01/04 13:53:00;;;;;;;;;;;20.30;57.90;;;;;;5023264;28;45454;-78
2023/01/04 13:55:26;;;;;;;;;;;18.30;56.80;;;;;;5044749;28;43597;-80
2023/01/04 13:57:53;;;;;;;;;;;18.30;56.70;;;;;;5038725;28;44174;-78
2023/01/04 14:00:19;;;;;;;;;;;18.30;56.70;;;;;;5035546;28;42888;-78
2023/01/04 14:02:44;;;;;;;;;;;18.40;56.80;;;;;;5056627;28;42894;-75
2023/01/04 14:05:16;;;;;;;;;;;18.30;56.80;;;;;;5053532;28;43479;-80
2023/01/04 14:07:43;;;;;;;;;;;18.30;56.80;;;;;;5046931;28;43785;-76
2023/01/04 14:10:15;;;;;;;;;;;18.30;56.90;;;;;;5042368;28;43066;-78
2023/01/04 14:12:42;;;;;;;;;;;18.30;57.00;;;;;;5061055;28;42958;-78
2023/01/04 14:15:14;;;;;;;;;;;18.20;56.90;;;;;;5054965;28;42981;-78
2023/01/04 14:17:45;;;;;;;;;;;18.20;57.00;;;;;;5059497;28;43016;-78
2023/01/04 14:20:13;;;;;;;;;;;18.30;57.00;;;;;;5049020;28;43105;-79
2023/01/04 14:22:45;;;;;;;;;;;18.30;57.20;;;;;;5040442;28;43906;-82
2023/01/04 14:25:37;;;;;;;;;;;18.30;57.00;;;;;;5037856;28;42975;-77
2023/01/04 14:28:18;;;;;;;;;;;18.30;57.00;;;;;;5033288;28;45159;-79
2023/01/04 14:30:44;;;;;;;;;;;18.30;57.10;;;;;;5049135;28;43062;-78
2023/01/04 14:33:15;;;;;;;;;;;18.10;56.70;;;;;;5034351;28;44301;-79
2023/01/04 14:35:40;;;;;;;;;;;18.10;56.80;;;;;;5057937;28;43030;-79
2023/01/04 14:38:11;;;;;;;;;;;18.00;56.90;;;;;;5060067;28;43693;-80
2023/01/04 14:40:37;;;;;;;;;;;18.00;57.20;;;;;;5045469;28;43209;-80
2023/01/04 14:43:22;;;;;;;;;;;18.00;57.30;;;;;;5053891;28;44019;-78
2023/01/04 14:45:48;;;;;;;;;;;18.00;57.40;;;;;;5051777;28;42966;-79
2023/01/04 14:48:13;;;;;;;;;;;17.90;57.30;;;;;;5046536;28;43437;-78
2023/01/04 14:50:39;;;;;;;;;;;17.90;57.40;;;;;;5048476;28;43978;-79
2023/01/04 14:53:04;;;;;;;;;;;17.90;57.50;;;;;;5054996;28;43862;-79
2023/01/04 14:55:30;;;;;;;;;;;17.90;57.60;;;;;;5053314;28;43127;-77
2023/01/04 14:57:55;;;;;;;;;;;17.90;57.60;;;;;;5055479;28;43001;-79
2023/01/04 15:00:21;;;;;;;;;;;17.90;57.60;;;;;;5048392;28;43256;-78
2023/01/04 15:02:50;;;;;;;;;;;17.90;57.50;;;;;;5049107;28;43532;-79
2023/01/04 15:05:18;;;;;;;;;;;17.80;57.60;;;;;;5041923;28;42962;-78
2023/01/04 15:07:44;;;;;;;;;;;17.80;57.50;;;;;;5049994;28;43844;-80
2023/01/04 15:10:23;;;;;;;;;;;17.80;57.40;;;;;;5029073;28;42872;-79
2023/01/04 15:12:49;;;;;;;;;;;17.80;57.50;;;;;;5043571;28;43080;-79
2023/01/04 15:15:14;;;;;;;;;;;17.80;57.40;;;;;;5034972;28;43022;-78
2023/01/04 15:17:40;;;;;;;;;;;17.70;57.40;;;;;;5045324;28;43484;-79